Standard, California
Current Conditions -  °F | °C
As of 2:35 AM on Saturday 25 Oct 2014 (Local Time) from KO22 Reporting Station
Scattered Clouds Scattered Clouds  
Wind Chill: 57°   Ceiling: Unl
Heat Index: 57°   Visibility: 10mi
Dew Point: 46°   Wind: 3mph
Humidity: 67%   Direction: 130°SE
Pressure: 29.98"   Gusts: NA
Location:  37.97°N, 120.31°W
Report Text: KO22 250935Z AUTO 13003KT 10SM SCT026 SCT044 14/08 A2998 RMK AO1
Loading
Personal Weather Stations






























Interactive Weather Map New forecast layout! Learn more

10-Day Weather Forecast

Advertisements
Track Severe Weather on mobile